Nearby Weather Observations


KTIP - Rantoul, Illinois, USA
Distance from station: ENE 12mi, 19km
Updated: Fri, 17-Aug-2018 5:55pm CDT
Overcast
Overcast
 Wind from W
Wind: W 5 mph , 7 km/h
Temperature: 81°F , 27°C
Heat Index: 86°F , 30°C
Dew Point: 73°F , 23°C
Humidity: 79%
Barometer: 29.94 inHg , 1013.9 hPa
Clouds: Overcast
Visibility: 10 miles , 16 km
Cloud details: Overcast 9500 ft
2018/08/17 22:55 KTIP 172255Z AUTO 27004KT 10SM OVC095 27/23 A2994 RMK AO2 T02730228
KCMI - Champaign/Urbana, Illinois, USA
Distance from station: SSE 14mi, 22km
Updated: Fri, 17-Aug-2018 5:53pm CDT
Mostly cloudy
Mostly cloudy
 Wind from NNW
Wind: NNW 6 mph , 9 km/h
Temperature: 81°F , 27°C
Heat Index: 86°F , 30°C
Dew Point: 73°F , 23°C
Humidity: 79%
Barometer: 29.94 inHg , 1013.9 hPa
Clouds: Mostly cloudy
Visibility: 10 miles , 16 km
Cloud details: Mostly cloudy 9500 ft
2018/08/17 22:53 KCMI 172253Z 33005KT 10SM BKN095 27/23 A2994 RMK AO2 SLP134 T02720228
 
KBMI - Bloomington/Norm, Illinois, USA
Distance from station: WNW 34mi, 55km
Updated: Fri, 17-Aug-2018 5:56pm CDT
Mostly cloudy
Mostly cloudy
 Wind from NNW
Wind: NNW 15 mph , 24 km/h
Temperature: 81°F , 27°C
Heat Index: 85°F , 29°C
Dew Point: 70°F , 21°C
Humidity: 70%
Barometer: 29.95 inHg , 1014.2 hPa
Clouds: Mostly cloudy
Visibility: 10 miles , 16 km
Cloud details: Mostly cloudy 3800 ft
2018/08/17 22:56 KBMI 172256Z 33013KT 10SM BKN038 27/21 A2995 RMK AO2 SLP154 T02720206
KDEC - Decatur, Illinois, USA
Distance from station: SW 37mi, 60km
Updated: Fri, 17-Aug-2018 5:54pm CDT
Few Clouds
Few Clouds
 Wind from WNW
Wind: WNW 7 mph , 11 km/h
Temperature: 82°F , 28°C
Heat Index: 85°F , 29°C
Dew Point: 68°F , 20°C
Humidity: 62%
Barometer: 29.94 inHg , 1013.9 hPa
Clouds: Few Clouds
Visibility: 10 miles , 16 km
Cloud details: Few Clouds 3600 ft
2018/08/17 22:54 KDEC 172254Z 29006KT 10SM FEW036 28/20 A2994 RMK AO2 SLP133 T02780200
 
KDNV - Danville, Illinois, USA
Distance from station: E 40mi, 65km
Updated: Fri, 17-Aug-2018 5:55pm CDT
Partly cloudy
Partly cloudy
 Wind from calm
Wind: Calm
Temperature: 81°F , 27°C
Heat Index: 85°F , 29°C
Dew Point: 70°F , 21°C
Humidity: 70%
Barometer: 29.92 inHg , 1013.2 hPa
Clouds: Partly cloudy
Visibility: 10 miles , 16 km
Cloud details: Partly cloudy 3000 ft
Partly cloudy 11000 ft
2018/08/17 22:55 KDNV 172255Z AUTO 00000KT 10SM SCT030 SCT110 27/21 A2992 RMK AO2 T02700213 PWINO
KAAA - Lincoln, Illinois, USA
Distance from station: W 52mi, 83km
Updated: Fri, 17-Aug-2018 5:55pm CDT
Mostly cloudy
Mostly cloudy
 Wind from calm
Wind: Calm
Temperature: 82°F , 28°C
Heat Index: 85°F , 29°C
Dew Point: 68°F , 20°C
Humidity: 62%
Barometer: 29.94 inHg , 1013.9 hPa
Clouds: Mostly cloudy
Visibility: 10 miles , 16 km
Cloud details: Mostly cloudy 8500 ft
2018/08/17 22:55 KAAA 172255Z AUTO 00000KT 10SM BKN085 28/20 A2994 RMK AO2 T02830199
 
KMTO - Mattoon/Charlest, Illinois, USA
Distance from station: S 52mi, 84km
Updated: Fri, 17-Aug-2018 5:53pm CDT
Partly cloudy
Partly cloudy
 Wind from calm
Wind: Calm
Temperature: 77°F , 25°C
Dew Point: 70°F , 21°C
Humidity: 79%
Barometer: 29.94 inHg , 1013.9 hPa
Clouds: Partly cloudy
Visibility: 10 miles , 16 km
Cloud details: Few Clouds 2700 ft
Few Clouds 3400 ft
Partly cloudy 10000 ft
2018/08/17 22:53 KMTO 172253Z AUTO 00000KT 10SM FEW027 FEW034 SCT100 25/21 A2994 RMK AO2 RAB16E25 SLP132 P0000 T02500211
KSPI - Springfield, Illinois, USA
Distance from station: WSW 74mi, 120km
Updated: Fri, 17-Aug-2018 5:52pm CDT
Overcast
Overcast
 Wind from WSW
Wind: WSW 5 mph , 7 km/h
Temperature: 81°F , 27°C
Heat Index: 85°F , 29°C
Dew Point: 72°F , 22°C
Humidity: 74%
Barometer: 29.95 inHg , 1014.2 hPa
Clouds: Overcast
Visibility: 10 miles , 16 km
Cloud details: Overcast 10000 ft
2018/08/17 22:52 KSPI 172252Z 25004KT 10SM OVC100 27/22 A2995 RMK AO2 RAE2156 SLP136 P0000 T02670222
 
KLAF - Lafayette, Indiana, USA
Distance from station: E 76mi, 123km
Updated: Fri, 17-Aug-2018 5:54pm CDT
Mostly cloudy
Mostly cloudy
 Wind from calm
Wind: Calm
Temperature: 75°F , 24°C
Dew Point: 72°F , 22°C
Humidity: 89%
Barometer: 29.93 inHg , 1013.5 hPa
Clouds: Mostly cloudy
Visibility: 10 miles , 16 km
Cloud details: Mostly cloudy 11000 ft
2018/08/17 22:54 KLAF 172254Z 00000KT 10SM BKN110 24/22 A2993 RMK AO2 RAE09 SLP131 P0001 T02440217
KPIA - Peoria, Illinois, USA
Distance from station: WNW 76mi, 123km
Updated: Fri, 17-Aug-2018 5:54pm CDT
Clear
Clear
 Wind from varies
Wind: varies 6 mph , 9 km/h
Temperature: 81°F , 27°C
Heat Index: 84°F , 29°C
Dew Point: 68°F , 20°C
Humidity: 66%
Barometer: 29.94 inHg , 1013.9 hPa
Clouds: Clear
Visibility: 10 miles , 16 km
2018/08/17 22:54 KPIA 172254Z VRB05KT 10SM CLR 27/20 A2994 RMK AO2 SLP134 T02720200
 
KHUF - Terre Haute, Indiana, USA
Distance from station: SE 77mi, 124km
Updated: Fri, 17-Aug-2018 5:53pm CDT
Partly cloudy
Partly cloudy
 Wind from SSW
Wind: SSW 5 mph , 7 km/h
Temperature: 75°F , 24°C
Dew Point: 72°F , 22°C
Humidity: 89%
Barometer: 29.95 inHg , 1014.2 hPa
Clouds: Partly cloudy
Visibility: 10 miles , 16 km
Cloud details: Partly cloudy 11000 ft
2018/08/17 22:53 KHUF 172253Z 21004KT 10SM SCT110 24/22 A2995 RMK AO2 LTG DSNT SE SLP138 T02390222
K1H2 - Effingham, Illinois, USA
Distance from station: S 80mi, 129km
Updated: Fri, 17-Aug-2018 5:55pm CDT
Partly cloudy
Partly cloudy
 Wind from calm
Wind: Calm
Temperature: 79°F , 26°C
Dew Point: 75°F , 24°C
Humidity: 89%
Barometer: 29.96 inHg , 1014.6 hPa
Clouds: Partly cloudy
Visibility: 10 miles , 16 km
Cloud details: Partly cloudy 6000 ft
Partly cloudy 9000 ft
2018/08/17 22:55 K1H2 172255Z AUTO 00000KT 10SM SCT060 SCT090 26/24 A2996 RMK AO2 T02610236
 
KIND - Indianapolis, Indiana, USA
Distance from station: ESE 117mi, 133km
Updated: Fri, 17-Aug-2018 5:54pm CDT
Light rain, Mostly cloudy
Light rain, Mostly cloudy
 Wind from SW
Wind: SW 6 mph , 9 km/h
Temperature: 73°F , 23°C
Dew Point: 72°F , 22°C
Humidity: 94%
Barometer: 29.95 inHg , 1014.2 hPa
Summary: Light rain
Clouds: Mostly cloudy
Visibility: 10 miles , 16 km
Cloud details: Few Clouds 1500 ft
Mostly cloudy 8000 ft
Mostly cloudy 11000 ft
Mostly cloudy 20000 ft
2018/08/17 22:54 KIND 172254Z 23005KT 10SM -RA FEW015 BKN080 BKN110 BKN200 23/22 A2995 RMK AO2 LTG DSNT S RAE28B48 SLP137 P0000 T02280217
KORD - Chicago O'hare, Illinois, USA
Distance from station: N 126mi, 203km
Updated: Fri, 17-Aug-2018 5:51pm CDT
Partly cloudy
Partly cloudy
 Wind from NE
Wind: NE 13 mph , 20 km/h
Temperature: 81°F , 27°C
Heat Index: 83°F , 28°C
Dew Point: 66°F , 19°C
Humidity: 62%
Barometer: 29.94 inHg , 1013.9 hPa
Clouds: Partly cloudy
Visibility: 10 miles , 16 km
Cloud details: Few Clouds 2000 ft
Few Clouds 3700 ft
Partly cloudy 5500 ft
Partly cloudy 25000 ft
2018/08/17 22:51 KORD 172251Z 05011KT 10SM FEW020 FEW037 SCT055 SCT250 27/19 A2994 RMK AO2 SLP136 T02670194
 
KSTL - St. Louis, Missouri, USA
Distance from station: SW 150mi, 185km
Updated: Fri, 17-Aug-2018 5:51pm CDT
Partly cloudy
Partly cloudy
 Wind from NNW
Wind: NNW 5 mph , 7 km/h
Temperature: 84°F , 29°C
Heat Index: 88°F , 31°C
Dew Point: 70°F , 21°C
Humidity: 62%
Barometer: 29.95 inHg , 1014.2 hPa
Clouds: Partly cloudy
Visibility: 10 miles , 16 km
Cloud details: Partly cloudy 5500 ft
Partly cloudy 10000 ft
Partly cloudy 25000 ft
2018/08/17 22:51 KSTL 172251Z 33004KT 10SM SCT055 SCT100 SCT250 29/21 A2995 RMK AO2 SLP129 T02940206